sensor_id;sensor_type;location;lat;lon;timestamp;pressure;altitude;pressure_sealevel;temperature;humidity
76124;BME280;65173;48.066;20.976;2022-12-07T00:00:50;100281.34;;;0.66;90.84
76124;BME280;65173;48.066;20.976;2022-12-07T00:03:54;100278.13;;;0.59;91.28
76124;BME280;65173;48.066;20.976;2022-12-07T00:06:59;100282.13;;;0.67;90.90
76124;BME280;65173;48.066;20.976;2022-12-07T00:10:02;100289.22;;;0.66;91.06
76124;BME280;65173;48.066;20.976;2022-12-07T00:13:05;100279.94;;;0.59;91.51
76124;BME280;65173;48.066;20.976;2022-12-07T00:16:12;100283.81;;;0.51;92.00
76124;BME280;65173;48.066;20.976;2022-12-07T00:19:15;100288.72;;;0.69;91.54
76124;BME280;65173;48.066;20.976;2022-12-07T00:22:18;100295.25;;;0.67;91.18
76124;BME280;65173;48.066;20.976;2022-12-07T00:25:20;100293.41;;;0.67;90.55
76124;BME280;65173;48.066;20.976;2022-12-07T00:28:23;100295.81;;;0.69;90.54
76124;BME280;65173;48.066;20.976;2022-12-07T00:31:28;100291.88;;;0.45;91.15
76124;BME280;65173;48.066;20.976;2022-12-07T00:34:32;100292.66;;;0.45;91.30
76124;BME280;65173;48.066;20.976;2022-12-07T00:37:34;100288.13;;;0.41;91.29
76124;BME280;65173;48.066;20.976;2022-12-07T00:40:37;100296.72;;;0.36;91.19
76124;BME280;65173;48.066;20.976;2022-12-07T00:43:40;100298.69;;;0.46;90.41
76124;BME280;65173;48.066;20.976;2022-12-07T00:46:43;100304.97;;;0.23;91.10
76124;BME280;65173;48.066;20.976;2022-12-07T00:49:48;100317.91;;;0.29;90.26
76124;BME280;65173;48.066;20.976;2022-12-07T00:52:51;100316.72;;;-0.02;92.07
76124;BME280;65173;48.066;20.976;2022-12-07T00:55:53;100320.63;;;-0.04;91.89
76124;BME280;65173;48.066;20.976;2022-12-07T00:59:00;100315.75;;;0.26;91.26
76124;BME280;65173;48.066;20.976;2022-12-07T01:02:03;100310.88;;;0.13;91.52
76124;BME280;65173;48.066;20.976;2022-12-07T01:05:07;100316.41;;;-0.05;91.43
76124;BME280;65173;48.066;20.976;2022-12-07T01:08:09;100306.53;;;-0.20;91.90
76124;BME280;65173;48.066;20.976;2022-12-07T01:11:15;100302.88;;;-0.19;91.79
76124;BME280;65173;48.066;20.976;2022-12-07T01:14:18;100307.06;;;-0.18;92.08
76124;BME280;65173;48.066;20.976;2022-12-07T01:17:21;100311.69;;;-0.25;92.16
76124;BME280;65173;48.066;20.976;2022-12-07T01:20:24;100311.25;;;0.00;91.14
76124;BME280;65173;48.066;20.976;2022-12-07T01:23:28;100315.09;;;-0.24;92.51
76124;BME280;65173;48.066;20.976;2022-12-07T01:26:30;100309.16;;;-0.20;91.82
76124;BME280;65173;48.066;20.976;2022-12-07T01:29:33;100307.25;;;-0.24;91.13
76124;BME280;65173;48.066;20.976;2022-12-07T01:32:36;100298.34;;;-0.23;91.13
76124;BME280;65173;48.066;20.976;2022-12-07T01:35:39;100298.50;;;-0.30;91.55
76124;BME280;65173;48.066;20.976;2022-12-07T01:38:42;100300.56;;;-0.32;92.66
76124;BME280;65173;48.066;20.976;2022-12-07T01:41:45;100299.16;;;-0.40;92.02
76124;BME280;65173;48.066;20.976;2022-12-07T01:48:38;100301.78;;;-0.23;91.24
76124;BME280;65173;48.066;20.976;2022-12-07T01:51:43;100291.38;;;-0.35;91.41
76124;BME280;65173;48.066;20.976;2022-12-07T01:54:49;100287.97;;;-0.18;91.10
76124;BME280;65173;48.066;20.976;2022-12-07T01:57:54;100292.63;;;-0.20;90.87
76124;BME280;65173;48.066;20.976;2022-12-07T02:00:58;100290.06;;;-0.15;90.92
76124;BME280;65173;48.066;20.976;2022-12-07T02:04:00;100282.72;;;-0.35;91.64
76124;BME280;65173;48.066;20.976;2022-12-07T02:07:04;100274.78;;;-0.23;91.26
76124;BME280;65173;48.066;20.976;2022-12-07T02:10:22;100279.59;;;-0.15;91.06
76124;BME280;65173;48.066;20.976;2022-12-07T02:13:31;100290.56;;;-0.18;90.97
76124;BME280;65173;48.066;20.976;2022-12-07T02:16:42;100281.25;;;-0.48;91.94
76124;BME280;65173;48.066;20.976;2022-12-07T02:23:38;100281.13;;;-0.19;91.53
76124;BME280;65173;48.066;20.976;2022-12-07T02:30:19;100278.22;;;-0.40;92.63
76124;BME280;65173;48.066;20.976;2022-12-07T02:33:29;100284.47;;;-0.24;93.06
76124;BME280;65173;48.066;20.976;2022-12-07T02:36:40;100272.56;;;-0.31;93.08
76124;BME280;65173;48.066;20.976;2022-12-07T02:43:27;100285.41;;;0.09;91.55
76124;BME280;65173;48.066;20.976;2022-12-07T02:46:33;100276.81;;;-0.09;92.19
76124;BME280;65173;48.066;20.976;2022-12-07T02:49:38;100278.31;;;-0.13;92.84
76124;BME280;65173;48.066;20.976;2022-12-07T02:52:42;100265.69;;;-0.16;93.12
76124;BME280;65173;48.066;20.976;2022-12-07T02:55:45;100269.03;;;-0.04;93.56
76124;BME280;65173;48.066;20.976;2022-12-07T03:11:42;100259.38;;;0.24;91.83
76124;BME280;65173;48.066;20.976;2022-12-07T03:14:57;100259.19;;;0.30;92.20
76124;BME280;65173;48.066;20.976;2022-12-07T03:18:03;100256.91;;;0.39;91.98
76124;BME280;65173;48.066;20.976;2022-12-07T03:21:11;100261.34;;;0.33;91.87
76124;BME280;65173;48.066;20.976;2022-12-07T03:24:19;100260.16;;;0.24;91.88
76124;BME280;65173;48.066;20.976;2022-12-07T03:27:26;100259.63;;;0.22;92.53
76124;BME280;65173;48.066;20.976;2022-12-07T03:34:09;100258.81;;;0.44;91.37
76124;BME280;65173;48.066;20.976;2022-12-07T03:37:20;100245.84;;;0.32;92.23
76124;BME280;65173;48.066;20.976;2022-12-07T03:40:32;100251.59;;;0.29;91.93
76124;BME280;65173;48.066;20.976;2022-12-07T03:43:37;100237.75;;;0.33;92.02
76124;BME280;65173;48.066;20.976;2022-12-07T03:53:26;100248.47;;;0.32;91.82
76124;BME280;65173;48.066;20.976;2022-12-07T03:56:33;100251.13;;;0.37;91.66
76124;BME280;65173;48.066;20.976;2022-12-07T03:59:38;100260.41;;;0.45;91.60
76124;BME280;65173;48.066;20.976;2022-12-07T04:02:42;100255.84;;;0.62;91.07
76124;BME280;65173;48.066;20.976;2022-12-07T04:05:45;100262.88;;;0.56;91.19
76124;BME280;65173;48.066;20.976;2022-12-07T04:08:48;100258.81;;;0.44;91.84
76124;BME280;65173;48.066;20.976;2022-12-07T04:11:51;100257.88;;;0.55;91.29
76124;BME280;65173;48.066;20.976;2022-12-07T04:14:53;100266.53;;;0.55;91.08
76124;BME280;65173;48.066;20.976;2022-12-07T04:17:56;100263.03;;;0.45;91.48
76124;BME280;65173;48.066;20.976;2022-12-07T04:20:59;100269.88;;;0.24;91.74
76124;BME280;65173;48.066;20.976;2022-12-07T04:24:02;100276.75;;;0.30;92.09
76124;BME280;65173;48.066;20.976;2022-12-07T04:27:05;100270.66;;;0.24;92.09
76124;BME280;65173;48.066;20.976;2022-12-07T04:30:08;100262.78;;;0.24;92.19
76124;BME280;65173;48.066;20.976;2022-12-07T04:33:11;100267.72;;;0.43;91.80
76124;BME280;65173;48.066;20.976;2022-12-07T04:36:13;100263.03;;;0.45;91.49
76124;BME280;65173;48.066;20.976;2022-12-07T04:39:30;100277.91;;;0.39;92.25
76124;BME280;65173;48.066;20.976;2022-12-07T04:42:33;100276.13;;;0.45;91.71
76124;BME280;65173;48.066;20.976;2022-12-07T04:45:36;100262.84;;;0.51;91.46
76124;BME280;65173;48.066;20.976;2022-12-07T04:48:38;100265.63;;;0.45;91.59
76124;BME280;65173;48.066;20.976;2022-12-07T04:51:42;100256.81;;;0.29;92.34
76124;BME280;65173;48.066;20.976;2022-12-07T04:54:44;100255.53;;;0.31;92.69
76124;BME280;65173;48.066;20.976;2022-12-07T04:57:47;100249.75;;;0.29;92.42
76124;BME280;65173;48.066;20.976;2022-12-07T05:00:53;100250.47;;;0.25;92.31
76124;BME280;65173;48.066;20.976;2022-12-07T05:03:57;100256.81;;;0.29;92.36
76124;BME280;65173;48.066;20.976;2022-12-07T05:06:59;100255.31;;;0.33;92.08
76124;BME280;65173;48.066;20.976;2022-12-07T05:10:02;100251.69;;;0.39;91.84
76124;BME280;65173;48.066;20.976;2022-12-07T05:13:05;100245.75;;;0.49;91.75
76124;BME280;65173;48.066;20.976;2022-12-07T05:16:08;100252.28;;;0.46;91.45
76124;BME280;65173;48.066;20.976;2022-12-07T05:19:11;100254.19;;;0.51;91.13
76124;BME280;65173;48.066;20.976;2022-12-07T05:22:15;100251.81;;;0.49;91.35
76124;BME280;65173;48.066;20.976;2022-12-07T05:25:17;100252.09;;;0.53;91.53
76124;BME280;65173;48.066;20.976;2022-12-07T05:28:20;100243.38;;;0.47;91.77
76124;BME280;65173;48.066;20.976;2022-12-07T05:31:24;100258.72;;;0.60;91.45
76124;BME280;65173;48.066;20.976;2022-12-07T05:34:27;100255.41;;;0.70;91.25
76124;BME280;65173;48.066;20.976;2022-12-07T05:37:30;100247.03;;;0.73;91.09
76124;BME280;65173;48.066;20.976;2022-12-07T05:40:33;100247.75;;;0.63;91.58
76124;BME280;65173;48.066;20.976;2022-12-07T05:43:36;100241.78;;;0.73;91.34
76124;BME280;65173;48.066;20.976;2022-12-07T05:46:39;100241.50;;;0.69;91.42
76124;BME280;65173;48.066;20.976;2022-12-07T05:49:41;100243.59;;;0.67;92.01
76124;BME280;65173;48.066;20.976;2022-12-07T05:52:44;100232.88;;;0.74;91.73
76124;BME280;65173;48.066;20.976;2022-12-07T05:55:46;100236.03;;;0.76;91.75
76124;BME280;65173;48.066;20.976;2022-12-07T05:58:49;100242.56;;;0.74;91.85
76124;BME280;65173;48.066;20.976;2022-12-07T06:02:12;100244.97;;;0.75;91.94
76124;BME280;65173;48.066;20.976;2022-12-07T06:05:15;100251.00;;;0.76;91.83
76124;BME280;65173;48.066;20.976;2022-12-07T06:08:18;100239.22;;;0.78;91.68
76124;BME280;65173;48.066;20.976;2022-12-07T06:11:21;100246.41;;;0.88;91.54
76124;BME280;65173;48.066;20.976;2022-12-07T06:14:42;100248.66;;;1.06;90.75
76124;BME280;65173;48.066;20.976;2022-12-07T06:17:45;100253.09;;;1.06;90.48
76124;BME280;65173;48.066;20.976;2022-12-07T06:20:47;100253.34;;;1.04;90.56
76124;BME280;65173;48.066;20.976;2022-12-07T06:23:50;100244.75;;;1.14;90.62
76124;BME280;65173;48.066;20.976;2022-12-07T06:26:53;100236.28;;;1.38;89.36
76124;BME280;65173;48.066;20.976;2022-12-07T06:29:56;100234.47;;;1.44;89.53
76124;BME280;65173;48.066;20.976;2022-12-07T06:32:59;100237.63;;;1.46;89.34
76124;BME280;65173;48.066;20.976;2022-12-07T06:36:01;100255.44;;;1.39;89.83
76124;BME280;65173;48.066;20.976;2022-12-07T06:39:05;100255.34;;;1.24;90.57
76124;BME280;65173;48.066;20.976;2022-12-07T06:42:08;100253.72;;;1.18;90.58
76124;BME280;65173;48.066;20.976;2022-12-07T06:45:11;100242.09;;;1.09;90.99
76124;BME280;65173;48.066;20.976;2022-12-07T06:48:14;100250.81;;;1.14;90.64
76124;BME280;65173;48.066;20.976;2022-12-07T06:51:17;100246.59;;;1.13;91.31
76124;BME280;65173;48.066;20.976;2022-12-07T06:54:20;100250.06;;;1.19;91.14
76124;BME280;65173;48.066;20.976;2022-12-07T06:57:22;100242.50;;;1.27;90.85
76124;BME280;65173;48.066;20.976;2022-12-07T07:00:26;100239.41;;;1.35;90.70
76124;BME280;65173;48.066;20.976;2022-12-07T07:03:29;100246.28;;;1.47;90.57
76124;BME280;65173;48.066;20.976;2022-12-07T07:06:33;100250.53;;;1.53;90.47
76124;BME280;65173;48.066;20.976;2022-12-07T07:09:35;100244.38;;;1.74;90.31
76124;BME280;65173;48.066;20.976;2022-12-07T07:12:38;100248.78;;;1.68;90.31
76124;BME280;65173;48.066;20.976;2022-12-07T07:15:41;100250.66;;;1.73;90.63
76124;BME280;65173;48.066;20.976;2022-12-07T07:18:44;100255.34;;;1.66;90.67
76124;BME280;65173;48.066;20.976;2022-12-07T07:21:47;100243.56;;;1.73;89.58
76124;BME280;65173;48.066;20.976;2022-12-07T07:24:50;100248.06;;;1.83;89.63
76124;BME280;65173;48.066;20.976;2022-12-07T07:27:52;100245.50;;;1.93;89.33
76124;BME280;65173;48.066;20.976;2022-12-07T07:30:55;100243.13;;;1.92;89.72
76124;BME280;65173;48.066;20.976;2022-12-07T07:33:58;100245.69;;;1.77;90.50
76124;BME280;65173;48.066;20.976;2022-12-07T07:37:01;100244.34;;;1.69;90.41
76124;BME280;65173;48.066;20.976;2022-12-07T07:40:04;100243.88;;;1.77;90.57
76124;BME280;65173;48.066;20.976;2022-12-07T07:43:07;100242.53;;;1.80;90.82
76124;BME280;65173;48.066;20.976;2022-12-07T07:46:09;100245.44;;;1.83;90.26
76124;BME280;65173;48.066;20.976;2022-12-07T07:49:13;100242.28;;;1.76;90.91
76124;BME280;65173;48.066;20.976;2022-12-07T07:52:15;100249.69;;;1.89;90.55
76124;BME280;65173;48.066;20.976;2022-12-07T07:55:18;100245.00;;;1.96;90.07
76124;BME280;65173;48.066;20.976;2022-12-07T07:58:21;100247.13;;;2.04;90.53
76124;BME280;65173;48.066;20.976;2022-12-07T08:01:23;100253.97;;;2.05;90.30
76124;BME280;65173;48.066;20.976;2022-12-07T08:04:26;100245.59;;;2.14;90.76
76124;BME280;65173;48.066;20.976;2022-12-07T08:07:30;100243.56;;;2.31;89.44
76124;BME280;65173;48.066;20.976;2022-12-07T08:10:32;100231.97;;;2.32;89.48
76124;BME280;65173;48.066;20.976;2022-12-07T08:13:36;100246.72;;;2.33;90.01
76124;BME280;65173;48.066;20.976;2022-12-07T08:16:39;100250.66;;;2.30;89.61
76124;BME280;65173;48.066;20.976;2022-12-07T08:19:42;100248.81;;;2.36;89.84
76124;BME280;65173;48.066;20.976;2022-12-07T08:22:45;100244.13;;;2.48;89.68
76124;BME280;65173;48.066;20.976;2022-12-07T08:25:48;100245.69;;;2.54;89.25
76124;BME280;65173;48.066;20.976;2022-12-07T08:28:52;100251.00;;;2.64;89.27
76124;BME280;65173;48.066;20.976;2022-12-07T08:32:02;100248.09;;;2.76;89.44
76124;BME280;65173;48.066;20.976;2022-12-07T08:35:11;100254.94;;;2.87;89.38
76124;BME280;65173;48.066;20.976;2022-12-07T08:38:14;100241.81;;;2.97;88.37
76124;BME280;65173;48.066;20.976;2022-12-07T08:41:17;100253.91;;;3.13;87.73
76124;BME280;65173;48.066;20.976;2022-12-07T08:44:20;100253.63;;;3.35;86.33
76124;BME280;65173;48.066;20.976;2022-12-07T08:47:23;100263.63;;;3.48;86.32
76124;BME280;65173;48.066;20.976;2022-12-07T08:50:27;100254.38;;;3.61;85.45
76124;BME280;65173;48.066;20.976;2022-12-07T08:53:31;100253.84;;;3.74;85.01
76124;BME280;65173;48.066;20.976;2022-12-07T08:56:35;100255.63;;;3.89;84.01
76124;BME280;65173;48.066;20.976;2022-12-07T08:59:38;100261.63;;;4.05;83.55
76124;BME280;65173;48.066;20.976;2022-12-07T09:02:45;100254.72;;;4.19;82.53
76124;BME280;65173;48.066;20.976;2022-12-07T09:05:49;100245.94;;;4.34;80.98
76124;BME280;65173;48.066;20.976;2022-12-07T09:08:55;100242.75;;;4.42;82.52
76124;BME280;65173;48.066;20.976;2022-12-07T09:12:00;100241.44;;;4.39;82.10
76124;BME280;65173;48.066;20.976;2022-12-07T09:15:05;100240.28;;;4.50;81.80
76124;BME280;65173;48.066;20.976;2022-12-07T09:18:08;100236.28;;;4.63;82.80
76124;BME280;65173;48.066;20.976;2022-12-07T09:21:10;100235.13;;;4.74;80.62
76124;BME280;65173;48.066;20.976;2022-12-07T09:24:13;100222.94;;;4.83;79.83
76124;BME280;65173;48.066;20.976;2022-12-07T09:27:17;100231.31;;;4.91;79.63
76124;BME280;65173;48.066;20.976;2022-12-07T09:30:21;100230.28;;;4.86;79.65
76124;BME280;65173;48.066;20.976;2022-12-07T09:33:24;100233.44;;;4.88;78.89
76124;BME280;65173;48.066;20.976;2022-12-07T09:36:27;100229.84;;;5.08;79.53
76124;BME280;65173;48.066;20.976;2022-12-07T09:39:31;100222.41;;;5.15;79.85
76124;BME280;65173;48.066;20.976;2022-12-07T09:42:38;100220.22;;;4.94;80.28
76124;BME280;65173;48.066;20.976;2022-12-07T09:45:48;100215.31;;;5.11;79.95
76124;BME280;65173;48.066;20.976;2022-12-07T09:48:53;100221.56;;;5.20;79.60
76124;BME280;65173;48.066;20.976;2022-12-07T09:55:12;100219.78;;;5.39;78.13
76124;BME280;65173;48.066;20.976;2022-12-07T09:58:33;100223.13;;;5.50;78.19
76124;BME280;65173;48.066;20.976;2022-12-07T10:01:38;100225.66;;;5.36;80.20
76124;BME280;65173;48.066;20.976;2022-12-07T10:04:42;100213.16;;;5.42;78.90
76124;BME280;65173;48.066;20.976;2022-12-07T10:07:46;100209.25;;;5.87;78.37
76124;BME280;65173;48.066;20.976;2022-12-07T10:10:54;100203.88;;;7.18;73.24
76124;BME280;65173;48.066;20.976;2022-12-07T10:14:11;100204.22;;;6.28;76.09
76124;BME280;65173;48.066;20.976;2022-12-07T10:17:31;100212.59;;;6.54;74.47
76124;BME280;65173;48.066;20.976;2022-12-07T10:20:35;100203.44;;;7.57;71.21
76124;BME280;65173;48.066;20.976;2022-12-07T10:23:39;100201.50;;;7.49;71.94
76124;BME280;65173;48.066;20.976;2022-12-07T10:29:52;100203.13;;;6.67;72.85
76124;BME280;65173;48.066;20.976;2022-12-07T10:32:55;100204.66;;;6.73;73.98
76124;BME280;65173;48.066;20.976;2022-12-07T10:35:59;100200.84;;;7.11;73.63
76124;BME280;65173;48.066;20.976;2022-12-07T10:39:16;100200.91;;;7.80;70.89
76124;BME280;65173;48.066;20.976;2022-12-07T10:42:23;100201.16;;;6.58;73.18
76124;BME280;65173;48.066;20.976;2022-12-07T10:45:26;100198.56;;;5.97;73.88
76124;BME280;65173;48.066;20.976;2022-12-07T11:05:48;100194.94;;;8.24;67.28
76124;BME280;65173;48.066;20.976;2022-12-07T11:12:34;100177.63;;;9.47;63.47
76124;BME280;65173;48.066;20.976;2022-12-07T11:22:51;100182.41;;;9.36;63.14
76124;BME280;65173;48.066;20.976;2022-12-07T11:36:24;100165.69;;;9.04;60.24
76124;BME280;65173;48.066;20.976;2022-12-07T11:39:44;100161.03;;;9.10;61.49
76124;BME280;65173;48.066;20.976;2022-12-07T11:42:55;100162.75;;;9.54;59.80
76124;BME280;65173;48.066;20.976;2022-12-07T11:46:06;100162.53;;;9.82;57.84
76124;BME280;65173;48.066;20.976;2022-12-07T11:56:12;100148.22;;;9.60;57.46
76124;BME280;65173;48.066;20.976;2022-12-07T11:59:41;100156.69;;;9.62;54.41
76124;BME280;65173;48.066;20.976;2022-12-07T12:03:09;100149.81;;;8.91;57.70
76124;BME280;65173;48.066;20.976;2022-12-07T12:06:14;100153.66;;;9.07;57.98
76124;BME280;65173;48.066;20.976;2022-12-07T12:09:21;100148.34;;;9.07;58.08
76124;BME280;65173;48.066;20.976;2022-12-07T12:16:35;100139.44;;;9.51;56.70
76124;BME280;65173;48.066;20.976;2022-12-07T12:23:09;100144.38;;;9.92;55.20
76124;BME280;65173;48.066;20.976;2022-12-07T12:26:21;100141.47;;;10.28;53.76
76124;BME280;65173;48.066;20.976;2022-12-07T12:29:37;100152.84;;;10.12;55.05
76124;BME280;65173;48.066;20.976;2022-12-07T12:32:42;100142.19;;;10.81;54.13
76124;BME280;65173;48.066;20.976;2022-12-07T12:39:18;100143.16;;;10.24;51.90
76124;BME280;65173;48.066;20.976;2022-12-07T12:42:49;100143.94;;;10.59;52.05
76124;BME280;65173;48.066;20.976;2022-12-07T12:50:17;100130.56;;;9.73;53.16
76124;BME280;65173;48.066;20.976;2022-12-07T12:53:24;100134.97;;;10.03;49.40
76124;BME280;65173;48.066;20.976;2022-12-07T12:56:42;100134.88;;;10.26;49.70
76124;BME280;65173;48.066;20.976;2022-12-07T13:02:55;100137.84;;;10.41;48.05
76124;BME280;65173;48.066;20.976;2022-12-07T13:09:31;100138.44;;;10.73;48.78
76124;BME280;65173;48.066;20.976;2022-12-07T13:12:35;100137.94;;;10.88;48.59
76124;BME280;65173;48.066;20.976;2022-12-07T13:18:48;100140.59;;;10.79;48.00
76124;BME280;65173;48.066;20.976;2022-12-07T13:21:50;100136.63;;;11.03;48.10
76124;BME280;65173;48.066;20.976;2022-12-07T13:25:17;100134.38;;;10.41;46.74
76124;BME280;65173;48.066;20.976;2022-12-07T13:37:33;100135.78;;;10.64;49.11
76124;BME280;65173;48.066;20.976;2022-12-07T13:40:40;100131.09;;;10.44;48.78
76124;BME280;65173;48.066;20.976;2022-12-07T13:43:53;100125.00;;;10.43;48.46
76124;BME280;65173;48.066;20.976;2022-12-07T13:47:36;100120.16;;;10.20;48.99
76124;BME280;65173;48.066;20.976;2022-12-07T13:50:42;100132.03;;;10.14;49.99
76124;BME280;65173;48.066;20.976;2022-12-07T13:53:53;100130.44;;;9.87;50.97
76124;BME280;65173;48.066;20.976;2022-12-07T13:56:57;100135.97;;;9.02;52.63
76124;BME280;65173;48.066;20.976;2022-12-07T14:00:00;100142.66;;;8.47;53.99
76124;BME280;65173;48.066;20.976;2022-12-07T14:06:25;100151.66;;;7.05;60.54
76124;BME280;65173;48.066;20.976;2022-12-07T14:09:32;100151.97;;;6.71;63.19
76124;BME280;65173;48.066;20.976;2022-12-07T14:12:36;100159.09;;;6.19;66.13
76124;BME280;65173;48.066;20.976;2022-12-07T14:15:38;100167.38;;;5.94;68.97
76124;BME280;65173;48.066;20.976;2022-12-07T14:18:42;100177.59;;;5.77;69.97
76124;BME280;65173;48.066;20.976;2022-12-07T14:21:44;100174.31;;;5.66;70.30
76124;BME280;65173;48.066;20.976;2022-12-07T14:24:47;100169.31;;;5.65;70.77
76124;BME280;65173;48.066;20.976;2022-12-07T14:27:55;100166.19;;;5.57;70.21
76124;BME280;65173;48.066;20.976;2022-12-07T14:30:59;100161.28;;;5.22;70.00
76124;BME280;65173;48.066;20.976;2022-12-07T14:34:02;100162.75;;;5.09;69.51
76124;BME280;65173;48.066;20.976;2022-12-07T14:37:09;100161.69;;;5.10;69.95
76124;BME280;65173;48.066;20.976;2022-12-07T14:40:16;100162.06;;;4.99;69.70
76124;BME280;65173;48.066;20.976;2022-12-07T14:43:20;100166.19;;;4.81;70.90
76124;BME280;65173;48.066;20.976;2022-12-07T14:46:22;100159.66;;;4.68;71.12
76124;BME280;65173;48.066;20.976;2022-12-07T14:49:25;100168.47;;;4.59;71.06
76124;BME280;65173;48.066;20.976;2022-12-07T14:52:31;100165.16;;;4.43;70.68
76124;BME280;65173;48.066;20.976;2022-12-07T14:55:54;100176.78;;;4.37;70.83
76124;BME280;65173;48.066;20.976;2022-12-07T14:58:57;100167.84;;;4.33;69.47
76124;BME280;65173;48.066;20.976;2022-12-07T15:02:00;100170.75;;;4.31;69.47
76124;BME280;65173;48.066;20.976;2022-12-07T15:05:03;100179.56;;;4.16;69.54
76124;BME280;65173;48.066;20.976;2022-12-07T15:08:08;100172.25;;;4.03;69.90
76124;BME280;65173;48.066;20.976;2022-12-07T15:11:15;100172.25;;;4.03;69.08
76124;BME280;65173;48.066;20.976;2022-12-07T15:14:18;100174.00;;;4.18;68.63
76124;BME280;65173;48.066;20.976;2022-12-07T15:21:36;100174.22;;;4.27;67.62
76124;BME280;65173;48.066;20.976;2022-12-07T15:29:38;100180.69;;;4.05;69.10
76124;BME280;65173;48.066;20.976;2022-12-07T15:32:41;100188.66;;;3.90;69.65
76124;BME280;65173;48.066;20.976;2022-12-07T15:35:45;100187.09;;;3.79;70.63
76124;BME280;65173;48.066;20.976;2022-12-07T15:38:48;100193.22;;;3.69;71.76
76124;BME280;65173;48.066;20.976;2022-12-07T15:42:11;100200.25;;;3.89;71.00
76124;BME280;65173;48.066;20.976;2022-12-07T15:45:14;100187.34;;;3.93;70.26
76124;BME280;65173;48.066;20.976;2022-12-07T15:48:16;100193.41;;;3.88;71.24
76124;BME280;65173;48.066;20.976;2022-12-07T15:51:30;100204.22;;;3.87;71.84
76124;BME280;65173;48.066;20.976;2022-12-07T15:54:32;100201.56;;;3.92;71.44
76124;BME280;65173;48.066;20.976;2022-12-07T15:57:36;100198.69;;;3.83;71.47
76124;BME280;65173;48.066;20.976;2022-12-07T16:00:40;100206.09;;;3.81;71.02
76124;BME280;65173;48.066;20.976;2022-12-07T16:03:43;100220.56;;;3.94;70.85
76124;BME280;65173;48.066;20.976;2022-12-07T16:06:45;100210.31;;;3.77;71.23
76124;BME280;65173;48.066;20.976;2022-12-07T16:09:49;100217.16;;;3.78;71.69
76124;BME280;65173;48.066;20.976;2022-12-07T16:12:52;100217.75;;;3.65;71.74
76124;BME280;65173;48.066;20.976;2022-12-07T16:15:55;100215.66;;;3.52;72.71
76124;BME280;65173;48.066;20.976;2022-12-07T16:18:58;100209.66;;;3.36;73.50
76124;BME280;65173;48.066;20.976;2022-12-07T16:22:01;100213.88;;;3.17;74.78
76124;BME280;65173;48.066;20.976;2022-12-07T16:25:03;100214.44;;;3.03;74.78
76124;BME280;65173;48.066;20.976;2022-12-07T16:28:07;100210.47;;;3.06;74.23
76124;BME280;65173;48.066;20.976;2022-12-07T16:31:13;100208.63;;;2.91;74.12
76124;BME280;65173;48.066;20.976;2022-12-07T16:34:16;100211.78;;;2.73;74.15
76124;BME280;65173;48.066;20.976;2022-12-07T16:37:19;100220.47;;;2.68;74.38
76124;BME280;65173;48.066;20.976;2022-12-07T16:40:23;100218.38;;;2.65;74.60
76124;BME280;65173;48.066;20.976;2022-12-07T16:43:26;100215.97;;;2.59;74.49
76124;BME280;65173;48.066;20.976;2022-12-07T16:46:28;100217.28;;;2.56;74.46
76124;BME280;65173;48.066;20.976;2022-12-07T16:49:31;100215.44;;;2.52;74.72
76124;BME280;65173;48.066;20.976;2022-12-07T16:52:34;100208.06;;;2.43;74.80
76124;BME280;65173;48.066;20.976;2022-12-07T16:55:41;100213.56;;;2.32;75.25
76124;BME280;65173;48.066;20.976;2022-12-07T16:58:45;100224.38;;;2.40;75.15
76124;BME280;65173;48.066;20.976;2022-12-07T17:01:50;100230.44;;;2.46;75.14
76124;BME280;65173;48.066;20.976;2022-12-07T17:04:53;100227.00;;;2.46;75.11
76124;BME280;65173;48.066;20.976;2022-12-07T17:07:56;100224.91;;;2.48;75.89
76124;BME280;65173;48.066;20.976;2022-12-07T17:10:59;100230.13;;;2.37;75.77
76124;BME280;65173;48.066;20.976;2022-12-07T17:14:02;100227.00;;;2.40;75.85
76124;BME280;65173;48.066;20.976;2022-12-07T17:17:24;100221.19;;;2.28;76.51
76124;BME280;65173;48.066;20.976;2022-12-07T17:20:27;100225.38;;;2.24;76.68
76124;BME280;65173;48.066;20.976;2022-12-07T17:23:31;100225.63;;;2.13;77.24
76124;BME280;65173;48.066;20.976;2022-12-07T17:26:34;100224.50;;;1.98;77.79
76124;BME280;65173;48.066;20.976;2022-12-07T17:29:37;100231.06;;;1.96;78.32
76124;BME280;65173;48.066;20.976;2022-12-07T17:32:40;100233.94;;;1.89;78.66
76124;BME280;65173;48.066;20.976;2022-12-07T17:35:43;100231.53;;;1.83;78.83
76124;BME280;65173;48.066;20.976;2022-12-07T17:38:46;100234.16;;;1.78;78.86
76124;BME280;65173;48.066;20.976;2022-12-07T17:41:50;100230.50;;;1.89;78.57
76124;BME280;65173;48.066;20.976;2022-12-07T17:45:11;100242.34;;;1.91;78.49
76124;BME280;65173;48.066;20.976;2022-12-07T17:48:14;100247.50;;;1.71;78.89
76124;BME280;65173;48.066;20.976;2022-12-07T17:51:16;100252.97;;;1.64;79.26
76124;BME280;65173;48.066;20.976;2022-12-07T17:54:38;100250.63;;;1.68;79.33
76124;BME280;65173;48.066;20.976;2022-12-07T17:57:40;100261.34;;;1.61;79.40
76124;BME280;65173;48.066;20.976;2022-12-07T18:00:44;100257.47;;;1.69;79.52
76124;BME280;65173;48.066;20.976;2022-12-07T18:03:46;100263.22;;;1.61;79.70
76124;BME280;65173;48.066;20.976;2022-12-07T18:06:49;100269.81;;;1.68;79.48
76124;BME280;65173;48.066;20.976;2022-12-07T18:09:54;100278.16;;;1.55;79.83
76124;BME280;65173;48.066;20.976;2022-12-07T18:12:57;100282.34;;;1.56;79.79
76124;BME280;65173;48.066;20.976;2022-12-07T18:16:22;100288.84;;;1.49;79.80
76124;BME280;65173;48.066;20.976;2022-12-07T18:19:26;100289.03;;;1.37;80.18
76124;BME280;65173;48.066;20.976;2022-12-07T18:22:29;100282.41;;;1.29;80.08